Time;durP1;ratioP1;P1;durP2;ratioP2;P2;SDS_P1;SDS_P2;PMS_P1;PMS_P2;Temp;Humidity;BMP_temperature;BMP_pressure;BME280_temperature;BME280_humidity;BME280_pressure;Samples;Min_cycle;Max_cycle;Signal;HPM_P1;HPM_P2
2021/05/09 00:01:42;;;;;;;27.22;16.07;;;;;;;6.45;64.13;100322.16;1638224;87;21125;-78
2021/05/09 00:04:10;;;;;;;24.63;16.15;;;;;;;6.45;64.47;100320.86;1638302;87;21260;-78
2021/05/09 00:06:36;;;;;;;21.85;13.60;;;;;;;6.47;64.54;100314.20;1638233;87;21193;-78
2021/05/09 00:09:03;;;;;;;23.65;15.48;;;;;;;6.48;64.60;100315.45;1638245;87;21190;-78
2021/05/09 00:11:28;;;;;;;24.43;14.63;;;;;;;6.48;64.43;100304.95;1638176;87;21166;-78
2021/05/09 00:13:54;;;;;;;22.17;13.68;;;;;;;6.51;64.46;100302.60;1638360;87;21129;-78
2021/05/09 00:16:20;;;;;;;20.12;14.90;;;;;;;6.52;64.63;100299.08;1635629;87;21164;-78
2021/05/09 00:18:46;;;;;;;21.35;14.87;;;;;;;6.53;64.59;100300.28;1610306;89;21330;-78
2021/05/09 00:21:12;;;;;;;23.10;14.53;;;;;;;6.54;64.57;100292.78;1611439;89;21339;-78
2021/05/09 00:23:38;;;;;;;18.98;13.70;;;;;;;6.54;64.85;100295.41;1612252;89;21175;-78
2021/05/09 00:26:04;;;;;;;20.60;13.72;;;;;;;6.54;64.65;100298.50;1612334;89;21173;-78
2021/05/09 00:28:30;;;;;;;19.32;13.18;;;;;;;6.54;64.80;100295.41;1612296;89;21126;-78
2021/05/09 00:30:56;;;;;;;20.15;13.38;;;;;;;6.53;64.77;100295.04;1631538;87;21117;-78
2021/05/09 00:33:22;;;;;;;21.35;13.93;;;;;;;6.53;65.07;100297.66;1620437;87;21854;-78
2021/05/09 00:35:48;;;;;;;21.52;13.50;;;;;;;6.43;65.03;100282.55;1612408;88;21149;-78
2021/05/09 00:38:14;;;;;;;21.37;14.15;;;;;;;6.49;65.07;100295.31;1612086;88;21671;-78
2021/05/09 00:40:40;;;;;;;21.05;14.23;;;;;;;6.49;65.25;100290.07;1611889;88;21147;-78
2021/05/09 00:43:06;;;;;;;18.40;12.75;;;;;;;6.48;65.15;100283.98;1611794;89;21141;-78
2021/05/09 00:45:32;;;;;;;20.95;12.25;;;;;;;6.48;65.31;100287.05;1623978;87;21177;-78
2021/05/09 00:47:58;;;;;;;20.27;12.90;;;;;;;6.48;65.28;100292.28;1638100;87;21157;-78
2021/05/09 00:50:24;;;;;;;19.77;13.40;;;;;;;6.49;65.41;100290.91;1634784;87;21692;-78
2021/05/09 00:52:51;;;;;;;20.92;13.80;;;;;;;6.50;65.51;100287.34;1625203;88;21237;-78
2021/05/09 00:55:17;;;;;;;22.17;14.23;;;;;;;6.48;65.58;100285.30;1625345;88;21227;-78
2021/05/09 00:57:45;;;;;;;16.48;12.58;;;;;;;6.47;65.46;100288.83;1625295;88;21600;-78
2021/05/09 01:00:14;;;;;;;20.30;12.33;;;;;;;6.46;65.74;100290.23;1625398;88;21167;-78
2021/05/09 01:02:43;;;;;;;18.10;12.30;;;;;;;6.44;65.61;100286.84;1625215;88;21167;-78
2021/05/09 01:05:12;;;;;;;23.55;14.05;;;;;;;6.42;65.60;100280.39;1625006;87;21209;-78
2021/05/09 01:07:39;;;;;;;22.82;13.53;;;;;;;6.39;65.62;100281.03;1625763;87;21300;-78
2021/05/09 01:10:08;;;;;;;18.27;13.13;;;;;;;6.34;65.73;100279.48;1638173;87;21117;-78
2021/05/09 01:12:34;;;;;;;19.32;12.75;;;;;;;6.30;65.80;100277.98;1638274;87;21121;-78
2021/05/09 01:15:02;;;;;;;21.95;12.80;;;;;;;6.27;65.80;100274.69;1587192;90;21592;-78
2021/05/09 01:17:28;;;;;;;18.17;12.03;;;;;;;6.24;65.69;100270.92;1586992;90;21187;-78
2021/05/09 01:19:56;;;;;;;19.70;12.53;;;;;;;6.21;65.80;100270.63;1587140;90;21231;-78
2021/05/09 01:22:22;;;;;;;18.37;12.37;;;;;;;6.18;65.96;100269.48;1586681;90;21196;-78
2021/05/09 01:24:48;;;;;;;16.77;11.00;;;;;;;6.15;65.84;100275.36;1587281;90;21137;-78
2021/05/09 01:27:14;;;;;;;18.15;11.60;;;;;;;6.10;65.80;100269.91;1586698;90;21173;-78
2021/05/09 01:29:40;;;;;;;17.25;10.18;;;;;;;6.07;66.03;100270.55;1621885;87;21268;-78
2021/05/09 01:32:07;;;;;;;15.43;10.10;;;;;;;6.03;65.87;100264.63;1638403;87;21296;-78
2021/05/09 01:34:35;;;;;;;17.90;10.58;;;;;;;5.98;65.83;100267.11;1638594;87;21177;-78
2021/05/09 01:37:04;;;;;;;14.87;10.00;;;;;;;5.95;65.79;100272.05;1638315;87;21195;-78
2021/05/09 01:39:30;;;;;;;15.50;10.00;;;;;;;5.92;65.85;100272.64;1638604;87;21249;-78
2021/05/09 01:41:57;;;;;;;14.63;10.30;;;;;;;5.87;65.84;100266.36;1638294;87;21600;-78
2021/05/09 01:44:24;;;;;;;17.12;10.55;;;;;;;5.84;65.82;100267.83;1638685;87;21280;-78
2021/05/09 01:46:50;;;;;;;14.20;9.20;;;;;;;5.81;65.90;100265.38;1638370;87;21166;-78
2021/05/09 01:49:16;;;;;;;13.28;9.65;;;;;;;5.77;65.94;100263.39;1638526;87;21177;-78
2021/05/09 01:51:42;;;;;;;15.45;10.78;;;;;;;5.75;66.10;100261.77;1638412;87;21201;-78
2021/05/09 01:54:08;;;;;;;14.93;10.53;;;;;;;5.72;66.09;100259.31;1638596;87;21176;-78
2021/05/09 01:56:34;;;;;;;18.62;11.10;;;;;;;5.69;66.33;100268.17;1638494;87;21130;-78
2021/05/09 01:59:00;;;;;;;15.18;11.00;;;;;;;5.66;66.23;100268.37;1638655;87;21168;-78
2021/05/09 02:01:26;;;;;;;17.82;10.95;;;;;;;5.62;66.17;100259.80;1638578;87;21243;-78
2021/05/09 02:03:52;;;;;;;19.32;10.85;;;;;;;5.57;66.33;100260.99;1638425;87;21157;-78
2021/05/09 02:06:18;;;;;;;13.55;11.03;;;;;;;5.54;66.55;100261.16;1638676;87;21335;-78
2021/05/09 02:08:44;;;;;;;15.55;11.00;;;;;;;5.51;66.41;100256.92;1638659;87;21168;-78
2021/05/09 02:11:10;;;;;;;16.55;10.80;;;;;;;5.49;66.54;100250.91;1638631;87;21177;-78
2021/05/09 02:13:36;;;;;;;18.00;11.95;;;;;;;5.44;66.60;100247.70;1638534;87;21287;-78
2021/05/09 02:16:03;;;;;;;17.67;11.60;;;;;;;5.39;66.69;100247.09;1638760;87;21280;-78
2021/05/09 02:18:28;;;;;;;20.00;11.75;;;;;;;5.35;66.82;100250.33;1638495;87;21082;-78
2021/05/09 02:20:54;;;;;;;18.37;13.48;;;;;;;5.31;66.90;100243.57;1638731;87;21117;-78
2021/05/09 02:23:21;;;;;;;21.48;12.63;;;;;;;5.28;66.92;100254.19;1638550;87;21126;-78
2021/05/09 02:25:47;;;;;;;20.23;12.10;;;;;;;5.27;66.93;100247.75;1638493;87;21129;-78
2021/05/09 02:28:12;;;;;;;18.37;13.05;;;;;;;5.24;66.94;100242.67;1617384;87;21786;-78
2021/05/09 02:30:38;;;;;;;21.87;13.40;;;;;;;5.22;67.01;100250.58;1612320;88;21151;-78
2021/05/09 02:33:04;;;;;;;23.95;14.33;;;;;;;5.21;67.19;100246.75;1612195;88;21720;-78
2021/05/09 02:35:30;;;;;;;25.15;14.03;;;;;;;5.19;67.15;100245.50;1612273;88;21146;-78
2021/05/09 02:37:56;;;;;;;20.23;13.40;;;;;;;5.17;67.11;100247.37;1612131;88;21293;-78
2021/05/09 02:40:22;;;;;;;23.38;13.95;;;;;;;5.15;67.18;100244.82;1612257;89;21336;-78
2021/05/09 02:42:50;;;;;;;23.90;15.38;;;;;;;5.14;67.22;100237.06;1612118;88;22258;-78
2021/05/09 02:45:16;;;;;;;19.60;13.20;;;;;;;5.12;67.30;100238.44;1616230;87;21299;-78
2021/05/09 02:47:42;;;;;;;24.12;13.78;;;;;;;5.08;67.35;100235.60;1638514;87;21181;-78
2021/05/09 02:50:10;;;;;;;22.55;13.72;;;;;;;5.05;67.48;100229.69;1638570;87;21569;-78
2021/05/09 02:52:36;;;;;;;24.10;14.35;;;;;;;5.03;67.60;100234.14;1638351;87;21233;-78
2021/05/09 02:55:04;;;;;;;23.20;15.50;;;;;;;5.01;67.70;100235.54;1638649;87;21192;-78
2021/05/09 02:57:30;;;;;;;27.35;15.93;;;;;;;4.98;67.69;100238.77;1638416;87;21126;-78
2021/05/09 02:59:56;;;;;;;23.85;14.50;;;;;;;4.97;67.68;100248.83;1638634;87;21572;-78
2021/05/09 03:02:21;;;;;;;29.77;15.90;;;;;;;4.94;67.71;100247.23;1638467;87;21186;-78
2021/05/09 03:04:47;;;;;;;21.23;14.50;;;;;;;4.92;67.86;100243.38;1638646;87;21348;-78
2021/05/09 03:07:13;;;;;;;22.80;14.75;;;;;;;4.89;67.98;100237.45;1638468;87;21129;-78
2021/05/09 03:09:39;;;;;;;20.57;13.62;;;;;;;4.86;68.07;100233.22;1638608;87;21176;-78
2021/05/09 03:12:07;;;;;;;27.80;15.58;;;;;;;4.83;68.16;100239.07;1638276;87;21452;-78
2021/05/09 03:14:33;;;;;;;25.32;15.43;;;;;;;4.82;68.16;100238.70;1638626;87;21178;-78
2021/05/09 03:16:59;;;;;;;21.70;14.25;;;;;;;4.79;68.25;100230.54;1638390;87;21181;-78
2021/05/09 03:19:25;;;;;;;24.80;15.83;;;;;;;4.77;68.35;100231.53;1638715;87;21113;-78
2021/05/09 03:21:51;;;;;;;25.92;15.58;;;;;;;4.75;68.33;100240.77;1628086;87;21160;-78
2021/05/09 03:24:17;;;;;;;23.83;14.03;;;;;;;4.74;68.64;100243.01;1610691;88;21159;-78
2021/05/09 03:26:43;;;;;;;24.75;14.63;;;;;;;4.73;68.66;100237.37;1610559;89;21229;-78
2021/05/09 03:29:09;;;;;;;25.05;14.03;;;;;;;4.72;68.76;100247.92;1611972;88;21752;-78
2021/05/09 03:31:35;;;;;;;21.07;13.38;;;;;;;4.71;68.85;100248.39;1611843;88;21198;-78
2021/05/09 03:34:02;;;;;;;21.68;15.25;;;;;;;4.69;69.00;100236.69;1611882;89;21332;-78
2021/05/09 03:36:28;;;;;;;24.75;15.45;;;;;;;4.68;69.04;100238.92;1618702;87;21339;-78
2021/05/09 03:38:54;;;;;;;22.55;15.13;;;;;;;4.66;69.02;100228.99;1638650;87;21183;-78
2021/05/09 03:41:22;;;;;;;22.10;14.15;;;;;;;4.66;69.17;100226.84;1638480;87;21581;-78
2021/05/09 03:43:49;;;;;;;22.93;15.18;;;;;;;4.65;69.20;100235.62;1638458;87;21307;-79
2021/05/09 03:46:15;;;;;;;26.85;16.93;;;;;;;4.64;69.26;100233.91;1638578;87;21150;-78
2021/05/09 03:48:41;;;;;;;25.43;15.83;;;;;;;4.64;69.34;100229.98;1638517;87;21577;-78
2021/05/09 03:51:07;;;;;;;24.82;15.32;;;;;;;4.63;69.41;100233.06;1638592;87;21184;-78
2021/05/09 03:53:33;;;;;;;20.40;14.70;;;;;;;4.63;69.39;100238.29;1638601;87;21164;-78
2021/05/09 03:56:00;;;;;;;22.15;14.83;;;;;;;4.63;69.43;100227.84;1638506;87;21608;-78
2021/05/09 03:58:26;;;;;;;24.47;14.40;;;;;;;4.62;69.44;100218.78;1638541;87;21138;-78
2021/05/09 04:00:53;;;;;;;23.67;15.60;;;;;;;4.62;69.59;100220.93;1638644;87;21518;-78
2021/05/09 04:03:28;;;;;;;22.32;14.98;;;;;;;4.61;69.69;100216.63;1638562;87;21333;-78
2021/05/09 04:05:56;;;;;;;23.35;15.30;;;;;;;4.60;69.81;100217.53;1638462;87;21181;-78
2021/05/09 04:08:24;;;;;;;21.10;14.00;;;;;;;4.62;69.84;100223.54;1638508;87;21118;-78
2021/05/09 04:10:53;;;;;;;22.93;13.43;;;;;;;4.63;70.01;100215.23;1638545;87;21769;-78
2021/05/09 04:13:19;;;;;;;21.80;14.35;;;;;;;4.63;69.99;100210.01;1638501;87;21137;-78
2021/05/09 04:15:46;;;;;;;21.25;14.20;;;;;;;4.64;70.14;100205.16;1612402;87;21140;-78
2021/05/09 04:18:12;;;;;;;21.25;13.60;;;;;;;4.66;70.21;100199.40;1613008;87;21252;-78
2021/05/09 04:20:39;;;;;;;21.75;14.60;;;;;;;4.68;70.33;100200.19;1638561;87;21177;-78
2021/05/09 04:23:15;;;;;;;24.92;15.48;;;;;;;4.70;70.48;100195.27;1638543;87;21343;-78
2021/05/09 04:25:47;;;;;;;20.40;14.33;;;;;;;4.73;70.58;100203.39;1638580;87;21185;-77
2021/05/09 04:28:13;;;;;;;22.87;14.45;;;;;;;4.77;70.79;100204.95;1617396;87;21118;-78
2021/05/09 04:30:39;;;;;;;21.85;12.50;;;;;;;4.79;70.92;100195.24;1629899;87;21158;-78
2021/05/09 04:33:26;;;;;;;21.40;12.40;;;;;;;4.83;70.86;100188.93;1638368;87;21179;-78
2021/05/09 04:35:53;;;;;;;23.57;14.65;;;;;;;4.88;71.07;100193.48;1562432;91;21344;-78
2021/05/09 04:38:20;;;;;;;21.17;14.95;;;;;;;4.95;71.21;100196.63;1562142;91;21144;-78
2021/05/09 04:40:46;;;;;;;24.40;12.82;;;;;;;5.00;71.24;100195.94;1562290;92;21184;-78
2021/05/09 04:43:16;;;;;;;20.92;12.47;;;;;;;5.06;71.23;100195.59;1562253;92;21206;-78
2021/05/09 04:45:54;;;;;;;18.42;12.30;;;;;;;5.11;71.37;100198.83;1562386;92;21330;-78
2021/05/09 04:48:21;;;;;;;19.92;13.25;;;;;;;5.18;71.41;100198.89;1574977;90;21309;-79
2021/05/09 04:50:48;;;;;;;22.48;14.28;;;;;;;5.26;71.38;100210.72;1584159;90;21146;-79
2021/05/09 04:53:35;;;;;;;21.33;12.20;;;;;;;5.33;71.36;100210.77;1586747;90;21724;-79
2021/05/09 04:56:06;;;;;;;20.17;13.38;;;;;;;5.39;71.38;100211.76;1586184;90;21226;-77
2021/05/09 04:58:34;;;;;;;20.70;13.00;;;;;;;5.47;71.39;100208.29;1586419;90;21170;-77
2021/05/09 05:01:03;;;;;;;20.10;12.33;;;;;;;5.56;71.41;100206.93;1586444;90;21218;-78
2021/05/09 05:03:31;;;;;;;20.57;12.70;;;;;;;5.63;71.56;100197.84;1585424;90;21186;-78
2021/05/09 05:05:58;;;;;;;18.82;12.63;;;;;;;5.71;71.73;100198.73;1561545;90;21617;-78
2021/05/09 05:08:24;;;;;;;18.90;11.83;;;;;;;5.78;71.64;100207.46;1561711;92;21371;-78
2021/05/09 05:10:50;;;;;;;16.60;11.05;;;;;;;5.88;71.76;100205.19;1561818;92;21158;-78
2021/05/09 05:13:21;;;;;;;18.32;11.83;;;;;;;5.95;71.79;100205.26;1561767;92;21336;-78
2021/05/09 05:15:49;;;;;;;20.75;10.93;;;;;;;6.03;71.85;100203.08;1577102;90;21329;-78
2021/05/09 05:18:16;;;;;;;19.65;12.40;;;;;;;6.11;71.94;100200.86;1585281;90;21174;-78
2021/05/09 05:20:42;;;;;;;14.68;10.53;;;;;;;6.20;71.87;100198.66;1586521;90;21357;-78
2021/05/09 05:23:09;;;;;;;15.85;10.35;;;;;;;6.27;71.67;100200.84;1586338;90;21663;-78
2021/05/09 05:25:35;;;;;;;16.40;11.18;;;;;;;6.36;71.76;100202.11;1586314;90;21123;-78
2021/05/09 05:28:02;;;;;;;17.40;10.85;;;;;;;6.44;71.74;100198.56;1577788;90;21154;-78
2021/05/09 05:30:28;;;;;;;18.90;11.35;;;;;;;6.54;72.08;100196.26;1574551;91;21387;-78
2021/05/09 05:32:54;;;;;;;16.95;10.72;;;;;;;6.63;71.99;100197.52;1574539;91;21645;-78
2021/05/09 05:35:21;;;;;;;18.00;10.70;;;;;;;6.71;71.95;100196.58;1574501;91;21187;-78
2021/05/09 05:37:47;;;;;;;17.82;10.68;;;;;;;6.79;71.79;100192.59;1574537;90;21614;-78
2021/05/09 05:40:14;;;;;;;18.25;11.75;;;;;;;6.90;71.74;100196.35;1574559;91;21163;-78
2021/05/09 05:42:40;;;;;;;18.82;11.88;;;;;;;6.99;71.89;100188.78;1574828;90;21217;-78
2021/05/09 05:45:07;;;;;;;16.82;10.35;;;;;;;7.10;71.89;100197.78;1586415;90;21215;-78
2021/05/09 05:47:33;;;;;;;15.65;10.35;;;;;;;7.19;71.77;100199.38;1586319;90;21655;-78
2021/05/09 05:49:59;;;;;;;16.65;10.13;;;;;;;7.34;71.41;100192.81;1586516;90;21307;-78
2021/05/09 05:52:26;;;;;;;14.98;10.35;;;;;;;7.47;71.55;100196.41;1585399;90;21352;-78
2021/05/09 05:54:52;;;;;;;18.80;10.25;;;;;;;7.61;71.38;100194.23;1586332;90;21600;-78
2021/05/09 05:57:17;;;;;;;14.60;10.03;;;;;;;7.74;71.08;100199.09;1585680;90;21260;-78
2021/05/09 05:59:45;;;;;;;14.35;9.00;;;;;;;7.86;71.06;100193.04;1586580;90;21305;-78
2021/05/09 06:02:11;;;;;;;15.78;9.48;;;;;;;7.98;70.83;100188.33;1585259;90;21336;-78
2021/05/09 06:04:39;;;;;;;16.55;9.70;;;;;;;8.12;70.77;100189.22;1585659;90;21183;-78
2021/05/09 06:07:07;;;;;;;11.90;9.03;;;;;;;8.27;70.45;100195.29;1586208;90;21225;-78
2021/05/09 06:09:33;;;;;;;13.78;8.58;;;;;;;8.40;70.10;100196.20;1586195;90;21645;-78
2021/05/09 06:12:00;;;;;;;13.62;8.70;;;;;;;8.52;69.93;100189.28;1582240;90;21143;-78
2021/05/09 06:14:26;;;;;;;12.40;8.90;;;;;;;8.66;69.57;100194.00;1586369;90;21312;-78
2021/05/09 06:16:52;;;;;;;16.93;9.78;;;;;;;8.79;69.39;100187.94;1586381;90;21220;-78
2021/05/09 06:19:18;;;;;;;13.18;8.25;;;;;;;8.91;69.07;100192.34;1586548;90;21183;-78
2021/05/09 06:21:44;;;;;;;15.50;9.10;;;;;;;9.00;69.27;100181.67;1586211;90;21756;-78
2021/05/09 06:24:10;;;;;;;13.60;9.23;;;;;;;9.10;68.81;100182.73;1577244;90;21139;-78
2021/05/09 06:26:36;;;;;;;12.35;8.03;;;;;;;9.19;69.26;100178.16;1577425;90;21177;-78
2021/05/09 06:29:03;;;;;;;11.95;7.70;;;;;;;9.29;68.82;100180.52;1582725;90;21313;-78
2021/05/09 06:31:29;;;;;;;12.00;7.40;;;;;;;9.43;68.85;100182.66;1586402;90;21230;-78
2021/05/09 06:33:55;;;;;;;9.80;7.33;;;;;;;9.55;68.25;100180.00;1564749;90;21213;-78
2021/05/09 06:36:21;;;;;;;10.15;7.17;;;;;;;9.68;68.39;100173.39;1561811;92;21563;-79
2021/05/09 06:38:47;;;;;;;12.95;6.90;;;;;;;9.81;66.75;100177.31;1561672;91;21616;-79
2021/05/09 06:41:13;;;;;;;8.48;6.97;;;;;;;9.92;66.89;100177.38;1556305;91;21206;-78
2021/05/09 06:43:39;;;;;;;9.10;6.83;;;;;;;10.02;67.29;100178.87;1555094;92;21361;-78
2021/05/09 06:46:06;;;;;;;11.25;7.37;;;;;;;10.15;66.96;100173.55;1555277;92;21512;-78
2021/05/09 06:48:32;;;;;;;10.13;6.45;;;;;;;10.27;67.36;100172.69;1555195;92;21225;-79
2021/05/09 06:50:58;;;;;;;9.75;6.62;;;;;;;10.39;66.29;100162.52;1555147;92;21155;-78
2021/05/09 06:53:24;;;;;;;11.80;6.78;;;;;;;10.50;66.31;100169.18;1554924;92;21234;-78
2021/05/09 06:55:51;;;;;;;9.55;6.47;;;;;;;10.61;65.91;100165.73;1573395;90;21329;-79
2021/05/09 06:58:22;;;;;;;7.87;6.12;;;;;;;10.74;65.97;100165.65;1578885;90;21186;-78
2021/05/09 07:00:50;;;;;;;8.40;6.20;;;;;;;10.84;66.17;100167.11;1586420;90;21256;-78
2021/05/09 07:03:16;;;;;;;9.55;6.62;;;;;;;10.96;66.22;100168.82;1586240;90;21143;-78
2021/05/09 07:05:43;;;;;;;9.33;5.92;;;;;;;11.09;65.60;100172.65;1586417;90;21373;-78
2021/05/09 07:08:09;;;;;;;7.92;5.83;;;;;;;11.19;65.43;100169.20;1583238;90;21175;-78
2021/05/09 07:10:36;;;;;;;9.68;5.40;;;;;;;11.29;65.22;100169.33;1574480;91;21473;-78
2021/05/09 07:13:04;;;;;;;6.45;4.95;;;;;;;11.42;65.24;100177.98;1574398;90;21210;-78
2021/05/09 07:15:34;;;;;;;6.90;4.72;;;;;;;11.56;64.92;100177.38;1574518;91;21198;-78
2021/05/09 07:18:06;;;;;;;6.47;4.67;;;;;;;11.67;64.58;100168.94;1574413;90;21217;-78
2021/05/09 07:20:33;;;;;;;6.00;4.20;;;;;;;11.79;64.52;100170.25;1574535;90;21673;-80
2021/05/09 07:22:59;;;;;;;6.00;4.20;;;;;;;11.94;64.65;100167.71;1574365;91;21200;-80
2021/05/09 07:25:25;;;;;;;8.80;4.17;;;;;;;12.11;64.00;100166.34;1574418;91;21211;-80
2021/05/09 07:27:52;;;;;;;5.72;3.87;;;;;;;12.26;62.99;100165.58;1561669;90;21703;-79
2021/05/09 07:30:19;;;;;;;4.17;3.55;;;;;;;12.42;63.14;100171.30;1561707;91;21180;-80
2021/05/09 07:32:45;;;;;;;5.72;4.20;;;;;;;12.57;62.96;100167.38;1561198;90;21373;-80
2021/05/09 07:35:13;;;;;;;4.55;3.15;;;;;;;12.74;62.58;100163.31;1561645;91;21204;-80
2021/05/09 07:37:39;;;;;;;5.20;4.00;;;;;;;12.90;62.75;100169.48;1579912;90;21135;-80
2021/05/09 07:40:06;;;;;;;6.55;3.75;;;;;;;13.06;62.03;100157.94;1586213;90;21205;-81
2021/05/09 07:42:32;;;;;;;7.67;3.33;;;;;;;13.23;60.20;100159.63;1586026;90;21695;-80
2021/05/09 07:44:59;;;;;;;5.10;3.42;;;;;;;13.36;60.90;100152.33;1586215;90;21276;-80
2021/05/09 07:47:26;;;;;;;6.10;3.67;;;;;;;13.52;61.26;100155.78;1586070;90;21193;-80
2021/05/09 07:49:52;;;;;;;5.80;3.42;;;;;;;13.68;60.92;100156.11;1564027;90;21717;-80
2021/05/09 07:52:18;;;;;;;4.50;2.98;;;;;;;13.86;58.87;100158.96;1561695;91;21214;-80
2021/05/09 07:54:44;;;;;;;4.28;3.22;;;;;;;13.99;60.21;100156.89;1561710;92;21183;-79
2021/05/09 07:57:10;;;;;;;4.35;3.47;;;;;;;14.15;60.01;100158.14;1560714;91;21142;-80
2021/05/09 07:59:36;;;;;;;6.85;3.20;;;;;;;14.31;59.01;100157.11;1561844;91;21805;-81
2021/05/09 08:02:02;;;;;;;3.55;2.55;;;;;;;14.41;57.83;100153.99;1561579;92;21325;-81
2021/05/09 08:04:28;;;;;;;5.25;3.00;;;;;;;14.48;57.71;100151.61;1565103;90;21195;-80
2021/05/09 08:06:54;;;;;;;5.83;3.70;;;;;;;14.58;58.87;100152.94;1586317;90;21182;-80
2021/05/09 08:09:20;;;;;;;6.20;3.58;;;;;;;14.76;58.04;100155.23;1572668;90;21281;-84
2021/05/09 08:11:46;;;;;;;3.33;2.33;;;;;;;14.92;57.47;100158.63;1567916;90;21190;-81
2021/05/09 08:14:12;;;;;;;3.50;2.62;;;;;;;15.06;56.38;100158.16;1574357;90;21328;-81
2021/05/09 08:16:38;;;;;;;3.83;2.92;;;;;;;15.21;56.42;100152.74;1574107;91;21179;-83
2021/05/09 08:19:04;;;;;;;4.17;3.05;;;;;;;15.35;56.85;100154.58;1574669;90;21170;-78
2021/05/09 08:21:30;;;;;;;3.77;2.72;;;;;;;15.47;56.78;100160.89;1574417;91;21704;-80
2021/05/09 08:23:55;;;;;;;4.62;2.65;;;;;;;15.59;56.87;100158.86;1574281;90;21199;-80
2021/05/09 08:26:21;;;;;;;2.42;2.20;;;;;;;15.69;55.89;100149.53;1574569;90;21289;-82
2021/05/09 08:28:47;;;;;;;4.33;2.90;;;;;;;15.82;55.86;100154.50;1558063;90;21235;-82
2021/05/09 08:31:16;;;;;;;3.35;2.50;;;;;;;15.95;55.15;100150.98;1574574;90;21172;-80
2021/05/09 08:33:41;;;;;;;3.83;2.65;;;;;;;16.09;55.89;100153.16;1567898;90;21157;-80
2021/05/09 08:36:07;;;;;;;6.03;3.35;;;;;;;16.23;55.46;100147.80;1567384;90;21632;-78
2021/05/09 08:38:33;;;;;;;3.83;2.90;;;;;;;16.37;55.49;100149.08;1575167;90;21198;-81
2021/05/09 08:40:59;;;;;;;5.97;2.87;;;;;;;16.53;54.51;100147.05;1574583;91;21214;-80
2021/05/09 08:43:25;;;;;;;3.35;2.10;;;;;;;16.64;53.88;100146.30;1576022;90;21340;-79
2021/05/09 08:45:51;;;;;;;4.00;2.87;;;;;;;16.74;53.79;100136.88;1565182;90;21221;-80
2021/05/09 08:48:20;;;;;;;4.45;2.67;;;;;;;16.83;53.00;100131.98;1572444;90;21304;-80
2021/05/09 08:50:46;;;;;;;3.80;2.95;;;;;;;16.91;53.18;100136.52;1561790;91;21178;-81
2021/05/09 08:53:18;;;;;;;2.30;2.00;;;;;;;17.02;51.72;100135.44;1561658;91;21656;-81
2021/05/09 08:55:45;;;;;;;3.80;2.37;;;;;;;17.11;52.66;100127.84;1561906;91;21179;-81
2021/05/09 08:58:11;;;;;;;2.67;2.20;;;;;;;17.20;51.30;100130.86;1561596;92;21147;-81
2021/05/09 09:00:38;;;;;;;4.83;2.72;;;;;;;17.27;51.84;100133.73;1568866;90;21404;-81
2021/05/09 09:03:05;;;;;;;4.12;2.40;;;;;;;17.36;51.76;100139.44;1584652;90;21581;-80
2021/05/09 09:05:40;;;;;;;4.05;2.80;;;;;;;17.46;51.31;100136.66;1586157;90;21627;-82
2021/05/09 09:08:09;;;;;;;2.62;2.10;;;;;;;17.56;50.81;100134.69;1586309;90;21167;-82
2021/05/09 09:10:43;;;;;;;3.85;2.20;;;;;;;17.69;51.38;100123.06;1586294;90;21620;-83
2021/05/09 09:13:32;;;;;;;2.72;1.85;;;;;;;17.85;51.88;100124.14;1558693;90;21179;-82
2021/05/09 09:16:02;;;;;;;2.22;1.87;;;;;;;18.01;50.66;100119.67;1547424;90;21182;-81
2021/05/09 09:18:43;;;;;;;3.35;2.42;;;;;;;18.14;50.00;100124.53;1558357;92;21190;-81
2021/05/09 09:21:30;;;;;;;3.50;2.10;;;;;;;18.24;50.80;100130.55;1560540;90;21179;-81
2021/05/09 09:24:07;;;;;;;4.50;1.80;;;;;;;18.37;50.55;100126.56;1577033;90;21151;-81
2021/05/09 09:26:52;;;;;;;2.92;2.25;;;;;;;18.50;49.73;100120.21;1571260;90;21684;-81
2021/05/09 09:29:36;;;;;;;2.22;2.02;;;;;;;18.59;48.88;100113.87;1564227;90;21217;-79
2021/05/09 09:32:10;;;;;;;4.03;2.02;;;;;;;18.68;49.00;100114.16;1561059;90;21371;-77
2021/05/09 09:34:46;;;;;;;3.52;1.72;;;;;;;18.90;48.09;100109.99;1561628;91;21336;-79
2021/05/09 09:37:15;;;;;;;2.12;1.57;;;;;;;19.00;48.68;100104.97;1565430;90;21641;-79
2021/05/09 09:39:58;;;;;;;1.80;1.60;;;;;;;19.00;48.68;100104.97;1563533;90;22185;-78
2021/05/09 09:42:46;;;;;;;2.67;1.50;;;;;;;19.11;49.09;100104.59;1563936;90;21644;-79
2021/05/09 09:45:26;;;;;;;1.57;1.30;;;;;;;19.01;48.25;100066.01;1561005;92;21190;-79
2021/05/09 09:47:56;;;;;;;1.90;1.50;;;;;;;19.39;48.03;100102.33;1561675;92;21360;-80
2021/05/09 09:50:40;;;;;;;3.45;1.87;;;;;;;19.53;45.50;100094.06;1561550;91;21198;-78
2021/05/09 09:53:31;;;;;;;3.95;1.45;;;;;;;19.53;45.50;100094.06;1561737;92;21190;-79
2021/05/09 09:56:23;;;;;;;2.05;1.35;;;;;;;19.64;46.35;100091.01;1571482;90;21305;-79
2021/05/09 09:59:05;;;;;;;2.50;0.98;;;;;;;19.73;46.54;100085.11;1562494;90;21214;-78
2021/05/09 10:01:37;;;;;;;2.20;1.60;;;;;;;19.92;45.17;100091.36;1561642;92;21371;-80
2021/05/09 10:04:06;;;;;;;3.30;1.42;;;;;;;20.09;45.50;100094.75;1561787;92;21163;-81
2021/05/09 10:06:34;;;;;;;1.62;0.88;;;;;;;20.20;43.35;100088.13;1561068;92;21159;-80
2021/05/09 10:09:00;;;;;;;2.37;1.20;;;;;;;20.28;43.09;100083.55;1561381;92;21175;-80
2021/05/09 10:11:28;;;;;;;1.80;1.07;;;;;;;20.34;41.53;100083.34;1561686;92;21543;-79
2021/05/09 10:13:56;;;;;;;1.98;1.32;;;;;;;20.42;41.70;100084.59;1560045;91;21329;-80
2021/05/09 10:16:25;;;;;;;1.55;1.00;;;;;;;20.51;41.35;100078.19;1561683;92;21205;-80
2021/05/09 10:18:59;;;;;;;1.55;0.98;;;;;;;20.56;40.13;100077.63;1561756;91;21194;-78
2021/05/09 10:21:33;;;;;;;3.10;1.30;;;;;;;20.60;41.61;100078.95;1559044;92;21236;-80
2021/05/09 10:24:14;;;;;;;1.70;1.45;;;;;;;20.70;41.58;100081.37;1564077;90;21177;-79
2021/05/09 10:26:57;;;;;;;1.50;1.20;;;;;;;20.80;42.26;100066.67;1561185;92;21198;-78
2021/05/09 10:29:41;;;;;;;1.62;1.00;;;;;;;20.98;42.08;100062.27;1564264;90;21187;-80
2021/05/09 10:32:24;;;;;;;1.17;1.07;;;;;;;21.04;39.98;100060.20;1559281;92;21178;-80
2021/05/09 10:35:00;;;;;;;1.77;1.30;;;;;;;21.07;39.84;100061.69;1561725;92;21141;-78
2021/05/09 10:37:48;;;;;;;1.65;1.07;;;;;;;21.18;41.38;100059.86;1568727;90;21226;-78
2021/05/09 10:40:39;;;;;;;1.60;1.15;;;;;;;21.33;40.54;100047.77;1561572;92;21152;-77
2021/05/09 10:43:12;;;;;;;1.27;0.80;;;;;;;21.46;41.00;100047.14;1567675;90;21222;-78
2021/05/09 10:45:43;;;;;;;2.35;0.80;;;;;;;21.55;40.44;100031.21;1561292;90;21732;-78
2021/05/09 10:48:29;;;;;;;1.80;1.45;;;;;;;21.56;39.07;100046.83;1561639;92;21122;-78
2021/05/09 10:51:05;;;;;;;;;;;;;;;21.54;38.68;100046.49;1562217;90;21236;-79
2021/05/09 10:53:36;;;;;;;2.15;1.20;;;;;;;21.60;38.77;100048.11;1563367;90;20146;-80
2021/05/09 10:56:19;;;;;;;1.67;0.85;;;;;;;21.66;39.45;100050.87;1561094;90;21340;-79
2021/05/09 10:58:54;;;;;;;1.67;1.00;;;;;;;21.76;39.32;100050.56;1555935;90;21217;-77
2021/05/09 11:01:35;;;;;;;2.33;1.10;;;;;;;21.86;40.00;100048.39;1557098;92;21198;-79
2021/05/09 11:04:09;;;;;;;2.37;1.40;;;;;;;21.96;39.30;100047.55;1559089;90;21186;-80
2021/05/09 11:06:40;;;;;;;4.60;1.20;;;;;;;22.06;37.78;100041.03;1563328;90;21767;-79
2021/05/09 11:09:29;;;;;;;2.90;0.90;;;;;;;22.11;39.70;100033.20;1561184;92;21195;-80
2021/05/09 11:12:00;;;;;;;2.40;1.40;;;;;;;22.18;37.08;100030.13;1561381;91;21170;-79
2021/05/09 11:14:25;;;;;;;3.30;2.02;;;;;;;22.23;37.98;100029.01;1569753;90;21186;-78
2021/05/09 11:17:04;;;;;;;1.25;0.70;;;;;;;22.29;39.04;100025.55;1574390;91;21637;-80
2021/05/09 11:19:40;;;;;;;3.25;1.17;;;;;;;22.35;38.06;100023.42;1575341;90;21167;-79
2021/05/09 11:22:08;;;;;;;2.37;0.95;;;;;;;22.38;37.95;100012.29;1560981;92;21229;-77
2021/05/09 11:24:37;;;;;;;0.70;0.37;;;;;;;22.47;38.42;100020.53;1561406;91;21206;-79
2021/05/09 11:27:13;;;;;;;0.75;0.65;;;;;;;22.53;37.02;100005.97;1561399;92;21236;-79
2021/05/09 11:29:42;;;;;;;2.35;0.85;;;;;;;22.55;37.53;100001.23;1561746;92;21597;-79